createdAt,value
2018-08-10T00:00:06.197Z,24.6
2018-08-10T00:00:55.716Z,24.6
2018-08-10T00:01:46.326Z,24.6
2018-08-10T00:02:35.806Z,24.6
2018-08-10T00:03:26.141Z,24.6
2018-08-10T00:04:16.471Z,24.6
2018-08-10T00:05:06.353Z,24.6
2018-08-10T00:05:56.400Z,24.6
2018-08-10T00:06:46.721Z,24.6
2018-08-10T00:07:36.571Z,24.6
2018-08-10T00:08:25.483Z,24.6
2018-08-10T00:09:16.952Z,24.6
2018-08-10T00:10:06.699Z,24.6
2018-08-10T00:10:56.465Z,24.6
2018-08-10T00:11:45.980Z,24.6
2018-08-10T00:12:36.850Z,24.6
2018-08-10T00:13:26.648Z,24.6
2018-08-10T00:14:17.274Z,24.6
2018-08-10T00:15:07.124Z,24.6
2018-08-10T00:15:56.763Z,24.6
2018-08-10T00:16:47.193Z,24.6
2018-08-10T00:17:37.258Z,24.6
2018-08-10T00:18:26.781Z,24.6
2018-08-10T00:37:27.102Z,24.6
2018-08-10T00:38:16.870Z,24.6
2018-08-10T00:39:07.212Z,24.6
2018-08-10T00:39:57.282Z,24.6
2018-08-10T00:40:47.336Z,24.6
2018-08-10T00:41:36.821Z,24.6
2018-08-10T00:42:27.661Z,24.6
2018-08-10T00:43:17.576Z,24.6
2018-08-10T00:44:07.841Z,24.6
2018-08-10T00:44:57.786Z,24.6
2018-08-10T00:45:47.719Z,24.6
2018-08-10T00:46:37.808Z,24.6
2018-08-10T00:47:27.324Z,24.6
2018-08-10T00:48:17.438Z,24.6
2018-08-10T00:49:07.201Z,24.6
2018-08-10T00:49:57.931Z,24.6
2018-08-10T00:50:47.050Z,24.6
2018-08-10T00:51:38.188Z,24.6
2018-08-10T00:52:28.225Z,24.6
2018-08-10T00:53:18.061Z,24.6
2018-08-10T00:54:07.891Z,24.6
2018-08-10T00:54:58.243Z,24.6
2018-08-10T00:55:48.539Z,24.6
2018-08-10T00:56:38.025Z,24.6
2018-08-10T00:57:28.147Z,24.6
2018-08-10T00:58:18.924Z,24.6
2018-08-10T00:59:08.273Z,24.6
2018-08-10T00:59:58.871Z,24.6
2018-08-10T01:00:47.833Z,24.6
2018-08-10T01:01:38.434Z,24.6
2018-08-10T01:02:28.304Z,24.6
2018-08-10T01:03:19.150Z,24.6
2018-08-10T01:04:08.163Z,24.6
2018-08-10T01:04:58.812Z,24.6
2018-08-10T01:05:48.550Z,24.6
2018-08-10T01:06:38.581Z,24.6
2018-08-10T01:07:28.309Z,24.6
2018-08-10T01:08:18.217Z,24.6
2018-08-10T01:09:08.983Z,24.6
2018-08-10T01:09:59.393Z,24.6
2018-08-10T01:10:49.396Z,24.6
2018-08-10T01:11:39.168Z,24.6
2018-08-10T01:12:29.470Z,24.6
2018-08-10T01:13:20.002Z,24.6
2018-08-10T01:14:10.187Z,24.6
2018-08-10T01:14:59.730Z,24.6
2018-08-10T01:15:49.827Z,24.6
2018-08-10T01:16:40.298Z,24.6
2018-08-10T01:17:30.129Z,24.6
2018-08-10T01:18:19.984Z,24.6
2018-08-10T01:19:11.746Z,24.6
2018-08-10T01:20:00.124Z,24.6
2018-08-10T01:20:50.649Z,24.6
2018-08-10T01:21:40.202Z,24.6
2018-08-10T01:22:30.358Z,24.6
2018-08-10T01:23:20.655Z,24.6
2018-08-10T01:24:10.777Z,24.6
2018-08-10T01:25:00.546Z,24.6
2018-08-10T01:25:50.975Z,24.6
2018-08-10T01:26:40.635Z,24.6
2018-08-10T01:27:31.154Z,24.6
2018-08-10T01:28:20.744Z,24.6
2018-08-10T01:29:10.989Z,24.6
2018-08-10T01:30:01.519Z,24.6
2018-08-10T01:30:50.646Z,24.6
2018-08-10T01:31:40.766Z,24.6
2018-08-10T01:32:31.117Z,24.6
2018-08-10T01:33:20.644Z,24.6
2018-08-10T01:34:10.960Z,24.6
2018-08-10T01:35:01.691Z,24.6
2018-08-10T01:35:51.096Z,24.6
2018-08-10T01:36:41.133Z,24.6
2018-08-10T01:37:30.976Z,24.6
2018-08-10T01:38:22.004Z,24.6
2018-08-10T01:39:12.149Z,24.6
2018-08-10T01:40:15.960Z,24.6
2018-08-10T01:41:06.550Z,24.6
2018-08-10T01:41:41.819Z,24.6
2018-08-10T01:42:31.877Z,24.6
2018-08-10T01:43:21.550Z,24.6
2018-08-10T01:44:11.393Z,24.6
2018-08-10T01:45:02.300Z,24.6
2018-08-10T01:45:52.350Z,24.6
2018-08-10T01:46:55.701Z,24.6
2018-08-10T01:47:32.185Z,24.6
2018-08-10T01:48:22.250Z,24.6
2018-08-10T01:49:12.590Z,24.6
2018-08-10T01:50:02.692Z,24.6
2018-08-10T01:50:52.733Z,24.6
2018-08-10T01:51:42.772Z,24.6
2018-08-10T01:52:32.644Z,24.6
2018-08-10T01:53:23.197Z,24.6
2018-08-10T01:54:12.429Z,24.6
2018-08-10T01:55:02.541Z,24.6
2018-08-10T01:56:07.863Z,24.6
2018-08-10T01:56:43.175Z,24.6
2018-08-10T01:57:32.976Z,24.6
2018-08-10T01:58:23.355Z,24.6
2018-08-10T01:59:12.664Z,24.6
2018-08-10T02:00:02.467Z,24.6
2018-08-10T02:00:52.675Z,24.6
2018-08-10T02:01:43.085Z,24.6
2018-08-10T02:02:33.135Z,24.6
2018-08-10T02:03:22.925Z,24.6
2018-08-10T02:04:13.271Z,24.6
2018-08-10T02:05:03.655Z,24.6
2018-08-10T02:05:53.999Z,24.6
2018-08-10T02:06:44.279Z,24.6
2018-08-10T02:07:33.549Z,24.6
2018-08-10T02:08:23.303Z,24.6
2018-08-10T02:09:13.648Z,24.6
2018-08-10T02:10:04.265Z,24.6
2018-08-10T02:10:54.370Z,24.6
2018-08-10T02:11:44.409Z,24.6
2018-08-10T02:12:34.032Z,24.6
2018-08-10T02:13:23.955Z,24.6
2018-08-10T02:14:29.285Z,24.6
2018-08-10T02:15:04.878Z,24.6
2018-08-10T02:15:54.815Z,24.6
2018-08-10T02:16:44.520Z,24.6
2018-08-10T02:17:34.293Z,24.6
2018-08-10T02:18:24.883Z,24.6
2018-08-10T02:19:15.082Z,24.6
2018-08-10T02:20:05.004Z,24.6
2018-08-10T02:20:55.144Z,24.6
2018-08-10T02:21:45.109Z,24.6
2018-08-10T02:22:35.264Z,24.6
2018-08-10T02:23:25.279Z,24.6
2018-08-10T02:24:15.042Z,24.6
2018-08-10T02:25:19.793Z,24.6
2018-08-10T02:25:55.247Z,24.6
2018-08-10T02:26:45.521Z,24.6
2018-08-10T02:27:34.839Z,24.6
2018-08-10T02:28:25.421Z,24.6
2018-08-10T02:29:15.236Z,24.6
2018-08-10T02:30:05.816Z,24.6
2018-08-10T02:30:55.261Z,24.6
2018-08-10T02:31:45.999Z,24.6
2018-08-10T02:32:35.756Z,24.6
2018-08-10T02:33:25.759Z,24.6
2018-08-10T02:34:15.543Z,24.6
2018-08-10T02:35:05.387Z,24.6
2018-08-10T02:35:56.091Z,24.6
2018-08-10T02:36:45.468Z,24.6
2018-08-10T02:37:35.872Z,24.6
2018-08-10T02:38:26.213Z,24.6
2018-08-10T02:39:16.083Z,24.6
2018-08-10T02:40:06.110Z,24.6
2018-08-10T02:40:55.562Z,24.6
2018-08-10T02:41:45.722Z,24.6
2018-08-10T02:42:36.616Z,24.6
2018-08-10T02:43:25.841Z,24.6
2018-08-10T02:44:15.890Z,24.6
2018-08-10T02:45:06.666Z,24.6
2018-08-10T02:45:56.181Z,24.5
2018-08-10T02:46:46.523Z,24.6
2018-08-10T02:47:36.689Z,24.6
2018-08-10T02:48:25.932Z,24.6
2018-08-10T02:49:16.867Z,24.6
2018-08-10T02:50:21.397Z,24.6
2018-08-10T02:50:56.407Z,24.6
2018-08-10T02:51:46.010Z,24.6
2018-08-10T02:52:36.546Z,24.6
2018-08-10T02:53:26.744Z,24.6
2018-08-10T02:54:16.639Z,24.6
2018-08-10T02:55:07.315Z,24.6
2018-08-10T02:55:57.582Z,24.6
2018-08-10T02:56:47.404Z,24.6
2018-08-10T02:57:37.933Z,24.6
2018-08-10T02:58:28.198Z,24.5
2018-08-10T02:59:18.044Z,24.6
2018-08-10T03:00:07.042Z,24.6
2018-08-10T03:00:57.070Z,24.5
2018-08-10T03:01:47.804Z,24.6
2018-08-10T03:02:37.289Z,24.5
2018-08-10T03:03:28.158Z,24.6
2018-08-10T03:04:17.888Z,24.5
2018-08-10T03:05:07.407Z,24.5
2018-08-10T03:05:57.486Z,24.5
2018-08-10T03:06:48.411Z,24.5
2018-08-10T03:07:38.728Z,24.5
2018-08-10T03:08:28.221Z,24.5
2018-08-10T03:09:18.303Z,24.5
2018-08-10T03:10:08.583Z,24.5
2018-08-10T03:10:58.713Z,24.5
2018-08-10T03:12:02.895Z,24.5
2018-08-10T03:12:39.104Z,24.6
2018-08-10T03:13:28.401Z,24.6
2018-08-10T03:14:33.027Z,24.6
2018-08-10T03:15:09.308Z,24.6
2018-08-10T03:16:14.114Z,24.5
2018-08-10T03:16:49.137Z,24.6
2018-08-10T03:17:38.987Z,24.6
2018-08-10T03:18:28.499Z,24.6
2018-08-10T03:19:19.686Z,24.5
2018-08-10T03:20:09.705Z,24.5
2018-08-10T03:20:59.252Z,24.5
2018-08-10T03:21:49.972Z,24.5
2018-08-10T03:22:39.712Z,24.6
2018-08-10T03:23:29.712Z,24.5
2018-08-10T03:24:19.764Z,24.6
2018-08-10T03:25:09.966Z,24.5
2018-08-10T03:26:00.117Z,24.5
2018-08-10T03:26:48.999Z,24.5
2018-08-10T03:27:39.576Z,24.5
2018-08-10T03:28:29.263Z,24.5
2018-08-10T03:29:19.665Z,24.5
2018-08-10T03:30:10.365Z,24.5
2018-08-10T03:30:59.496Z,24.5
2018-08-10T03:31:49.660Z,24.5
2018-08-10T03:32:40.134Z,24.5
2018-08-10T03:33:30.679Z,24.5
2018-08-10T03:34:20.197Z,24.5
2018-08-10T03:35:10.611Z,24.5
2018-08-10T03:36:00.868Z,24.5
2018-08-10T03:36:50.984Z,24.5
2018-08-10T03:37:40.665Z,24.5
2018-08-10T03:38:31.105Z,24.5
2018-08-10T03:39:20.124Z,24.6
2018-08-10T03:40:10.714Z,24.5
2018-08-10T03:41:00.291Z,24.5
2018-08-10T03:41:50.087Z,24.5
2018-08-10T03:42:40.655Z,24.5
2018-08-10T03:43:31.189Z,24.5
2018-08-10T03:44:20.944Z,24.5
2018-08-10T03:45:11.054Z,24.5
2018-08-10T03:46:01.423Z,24.5
2018-08-10T03:46:51.882Z,24.5
2018-08-10T03:47:41.385Z,24.5
2018-08-10T03:48:31.032Z,24.5
2018-08-10T03:49:20.831Z,24.5
2018-08-10T03:50:11.014Z,24.5
2018-08-10T03:51:01.041Z,24.5
2018-08-10T03:51:51.392Z,24.5
2018-08-10T03:52:56.105Z,24.5
2018-08-10T03:53:46.957Z,24.5
2018-08-10T03:54:22.106Z,24.5
2018-08-10T03:55:12.249Z,24.5
2018-08-10T03:56:02.438Z,24.5
2018-08-10T03:56:51.921Z,24.5
2018-08-10T03:57:41.833Z,24.4
2018-08-10T03:58:31.358Z,24.5
2018-08-10T03:59:21.642Z,24.4
2018-08-10T04:00:12.419Z,24.4
2018-08-10T04:01:02.333Z,24.4
2018-08-10T04:01:52.195Z,24.4
2018-08-10T04:02:42.249Z,24.4
2018-08-10T04:03:32.014Z,24.4
2018-08-10T04:04:22.545Z,24.4
2018-08-10T04:05:12.585Z,24.4
2018-08-10T04:06:03.258Z,24.4
2018-08-10T04:06:52.798Z,24.4
2018-08-10T04:07:43.366Z,24.4
2018-08-10T04:08:32.596Z,24.4
2018-08-10T04:09:23.218Z,24.4
2018-08-10T04:10:12.804Z,24.3
2018-08-10T04:11:02.810Z,24.2
2018-08-10T04:11:53.437Z,24
2018-08-10T04:12:43.026Z,23.9
2018-08-10T04:13:47.946Z,23.8
2018-08-10T04:14:23.276Z,23.8
2018-08-10T04:15:13.520Z,23.8
2018-08-10T04:16:03.430Z,23.8
2018-08-10T04:16:53.719Z,23.7
2018-08-10T04:17:43.902Z,23.7
2018-08-10T04:18:33.633Z,23.6
2018-08-10T04:19:24.026Z,23.6
2018-08-10T04:20:13.222Z,23.6
2018-08-10T04:21:04.458Z,23.6
2018-08-10T04:21:53.855Z,23.6
2018-08-10T04:22:44.085Z,23.6
2018-08-10T04:23:34.363Z,23.6
2018-08-10T04:24:23.849Z,23.5
2018-08-10T04:25:13.953Z,23.5
2018-08-10T04:26:04.280Z,23.4
2018-08-10T04:26:54.321Z,23.4
2018-08-10T04:27:44.854Z,23.4
2018-08-10T04:28:34.179Z,23.4
2018-08-10T04:29:24.592Z,23.4
2018-08-10T04:30:13.928Z,23.4
2018-08-10T05:06:59.750Z,23.2
2018-08-10T05:07:49.246Z,23.2
2018-08-10T05:08:40.162Z,23.2
2018-08-10T05:09:30.517Z,23.1
2018-08-10T05:10:19.969Z,23.1
2018-08-10T05:11:09.529Z,23.1
2018-08-10T05:12:00.714Z,23.1
2018-08-10T05:12:50.521Z,23
2018-08-10T05:13:39.933Z,23
2018-08-10T05:14:30.316Z,23
2018-08-10T05:15:20.084Z,23
2018-08-10T05:16:10.720Z,23
2018-08-10T05:17:00.208Z,23
2018-08-10T05:17:49.414Z,23
2018-08-10T05:18:41.233Z,23
2018-08-10T05:19:30.987Z,23
2018-08-10T05:20:21.063Z,23.1
2018-08-10T05:21:11.092Z,23.1
2018-08-10T05:22:00.922Z,23.1
2018-08-10T05:22:51.229Z,23.1
2018-08-10T05:23:41.011Z,23.1
2018-08-10T05:24:31.142Z,23.1
2018-08-10T05:25:20.843Z,23.1
2018-08-10T05:26:11.266Z,23.1
2018-08-10T05:27:00.729Z,23.2
2018-08-10T05:27:51.933Z,23.1
2018-08-10T05:28:41.688Z,23.1
2018-08-10T05:29:31.469Z,23.1
2018-08-10T05:30:21.859Z,23.2
2018-08-10T05:31:11.615Z,23.1
2018-08-10T05:32:01.983Z,23.2
2018-08-10T05:32:52.025Z,23.2
2018-08-10T05:33:42.358Z,23.2
2018-08-10T05:34:31.268Z,23.3
2018-08-10T05:35:21.886Z,23.3
2018-08-10T05:36:11.533Z,23.3
2018-08-10T05:37:01.763Z,23.4
2018-08-10T05:37:52.433Z,23.4
2018-08-10T05:38:42.463Z,23.4
2018-08-10T05:39:31.387Z,23.5
2018-08-10T05:40:21.441Z,23.5
2018-08-10T05:41:12.374Z,23.6
2018-08-10T05:42:02.704Z,23.6
2018-08-10T05:42:52.509Z,23.6
2018-08-10T05:43:42.022Z,23.6
2018-08-10T05:44:32.635Z,23.7
2018-08-10T05:45:21.237Z,23.7
2018-08-10T05:46:12.928Z,23.8
2018-08-10T05:47:04.477Z,23.8
2018-08-10T05:47:51.925Z,23.8
2018-08-10T05:48:43.254Z,23.8
2018-08-10T05:49:32.716Z,23.8
2018-08-10T05:50:23.083Z,23.8
2018-08-10T05:51:13.216Z,23.8
2018-08-10T05:52:03.593Z,23.8
2018-08-10T05:52:53.917Z,23.9
2018-08-10T05:53:43.373Z,23.9
2018-08-10T05:54:33.960Z,23.9
2018-08-10T05:55:23.537Z,23.9
2018-08-10T05:56:13.817Z,23.9
2018-08-10T05:57:03.646Z,23.9
2018-08-10T05:57:53.099Z,23.9
2018-08-10T05:58:43.778Z,23.9
2018-08-10T05:59:32.935Z,23.9
2018-08-10T06:00:24.436Z,23.9
2018-08-10T06:01:14.227Z,23.9
2018-08-10T06:02:04.566Z,24
2018-08-10T06:02:54.638Z,23.9
2018-08-10T06:03:46.113Z,24
2018-08-10T06:04:34.486Z,23.9
2018-08-10T06:05:24.264Z,24
2018-08-10T06:06:14.608Z,23.9
2018-08-10T06:07:04.633Z,24
2018-08-10T06:07:54.438Z,24
2018-08-10T06:08:44.254Z,24
2018-08-10T06:09:35.124Z,24
2018-08-10T06:10:25.219Z,24
2018-08-10T06:11:14.407Z,24
2018-08-10T06:12:05.313Z,24
2018-08-10T06:12:55.400Z,24
2018-08-10T06:13:45.432Z,24
2018-08-10T06:14:35.219Z,24.1
2018-08-10T06:15:25.846Z,24
2018-08-10T06:16:14.517Z,24
2018-08-10T06:17:04.590Z,24
2018-08-10T06:17:55.224Z,24
2018-08-10T06:18:45.550Z,23.9
2018-08-10T06:19:37.585Z,24
2018-08-10T06:20:25.383Z,24
2018-08-10T06:21:15.190Z,24
2018-08-10T06:22:05.306Z,24
2018-08-10T06:22:56.211Z,24
2018-08-10T06:23:45.133Z,24
2018-08-10T06:24:35.183Z,24
2018-08-10T06:25:25.589Z,24.1
2018-08-10T06:26:16.452Z,24.1
2018-08-10T06:27:05.931Z,24.1
2018-08-10T06:27:58.122Z,24
2018-08-10T06:28:45.591Z,24.1
2018-08-10T06:29:36.706Z,24.1
2018-08-10T06:30:25.238Z,24.1
2018-08-10T06:31:15.464Z,24.1
2018-08-10T06:32:05.458Z,24.1
2018-08-10T06:32:56.693Z,24.1
2018-08-10T06:33:48.017Z,24.1
2018-08-10T06:34:36.851Z,24.1
2018-08-10T06:35:26.855Z,24.1
2018-08-10T06:36:16.926Z,24.1
2018-08-10T06:37:07.264Z,24.1
2018-08-10T06:37:56.763Z,24.1
2018-08-10T06:38:47.400Z,24.1
2018-08-10T06:39:36.610Z,24.2
2018-08-10T06:40:27.267Z,24.1
2018-08-10T06:41:16.453Z,24.1
2018-08-10T06:42:06.838Z,24.1
2018-08-10T06:42:57.460Z,24.1
2018-08-10T06:43:47.791Z,24.1
2018-08-10T06:44:37.890Z,24.2
2018-08-10T06:45:27.157Z,24.2
2018-08-10T06:46:16.248Z,24.2
2018-08-10T06:47:07.465Z,24.2
2018-08-10T06:47:57.580Z,24.2
2018-08-10T06:48:47.961Z,24.2
2018-08-10T06:49:37.401Z,24.2
2018-08-10T06:50:28.334Z,24.2
2018-08-10T06:51:19.610Z,24.2
2018-08-10T06:52:08.452Z,24.2
2018-08-10T06:52:57.352Z,24.2
2018-08-10T06:53:48.602Z,24.3
2018-08-10T06:54:38.297Z,24.3
2018-08-10T06:55:28.136Z,24.3
2018-08-10T06:56:19.542Z,24.3
2018-08-10T06:57:08.545Z,24.4
2018-08-10T06:57:58.300Z,24.4
2018-08-10T06:58:47.607Z,24.4
2018-08-10T06:59:38.244Z,24.4
2018-08-10T07:00:29.082Z,24.4
2018-08-10T07:01:18.861Z,24.4
2018-08-10T07:02:09.171Z,24.4
2018-08-10T07:02:59.017Z,24.4
2018-08-10T07:03:49.074Z,24.4
2018-08-10T07:04:38.573Z,24.4
2018-08-10T07:05:29.579Z,24.4
2018-08-10T07:06:19.012Z,24.4
2018-08-10T07:07:09.078Z,24.4
2018-08-10T07:07:59.943Z,24.4
2018-08-10T07:08:49.224Z,24.5
2018-08-10T07:09:39.809Z,24.5
2018-08-10T07:10:29.309Z,24.5
2018-08-10T07:11:19.786Z,24.5
2018-08-10T07:12:09.413Z,24.5
2018-08-10T07:12:59.322Z,24.5
2018-08-10T07:13:49.443Z,24.5
2018-08-10T07:14:40.284Z,24.4
2018-08-10T07:15:29.128Z,24.5
2018-08-10T07:16:20.370Z,24.5
2018-08-10T07:17:09.326Z,24.5
2018-08-10T07:17:59.311Z,24.5
2018-08-10T07:18:50.032Z,24.5
2018-08-10T07:19:39.759Z,24.5
2018-08-10T07:20:29.807Z,24.5
2018-08-10T07:21:19.867Z,24.5
2018-08-10T07:22:10.228Z,24.5
2018-08-10T07:23:00.558Z,24.6
2018-08-10T07:23:50.704Z,24.6
2018-08-10T07:24:40.423Z,24.6
2018-08-10T07:25:30.452Z,24.6
2018-08-10T07:26:21.105Z,24.6
2018-08-10T07:27:11.790Z,24.6
2018-08-10T07:28:00.757Z,24.6
2018-08-10T07:28:51.032Z,24.6
2018-08-10T07:29:41.308Z,24.6
2018-08-10T07:30:31.417Z,24.6
2018-08-10T07:31:21.172Z,24.6
2018-08-10T07:32:11.224Z,24.6
2018-08-10T07:33:01.106Z,24.6
2018-08-10T07:33:51.374Z,24.6
2018-08-10T07:34:41.769Z,24.6
2018-08-10T07:35:31.771Z,24.6
2018-08-10T07:36:21.620Z,24.6
2018-08-10T07:37:11.616Z,24.7
2018-08-10T07:38:01.700Z,24.7
2018-08-10T07:38:51.241Z,24.7
2018-08-10T07:39:41.006Z,24.7
2018-08-10T07:40:31.959Z,24.7
2018-08-10T07:41:22.016Z,24.7
2018-08-10T07:42:10.929Z,24.7
2018-08-10T07:43:02.159Z,24.7
2018-08-10T07:43:52.462Z,24.7
2018-08-10T07:44:41.745Z,24.7
2018-08-10T07:45:31.846Z,24.7
2018-08-10T07:46:22.666Z,24.7
2018-08-10T07:47:12.471Z,24.7
2018-08-10T07:48:02.531Z,24.8
2018-08-10T07:48:52.313Z,24.8
2018-08-10T07:49:42.661Z,24.8
2018-08-10T07:50:32.481Z,24.8
2018-08-10T07:51:22.517Z,24.8
2018-08-10T07:52:13.374Z,24.8
2018-08-10T07:53:01.703Z,24.8
2018-08-10T07:53:53.239Z,24.8
2018-08-10T07:54:42.759Z,24.8
2018-08-10T07:55:32.601Z,24.8
2018-08-10T07:56:22.356Z,24.8
2018-08-10T07:57:12.438Z,24.8
2018-08-10T07:58:02.978Z,24.8
2018-08-10T07:58:53.412Z,24.8
2018-08-10T07:59:43.117Z,24.8
2018-08-10T08:00:33.439Z,24.9
2018-08-10T08:01:23.888Z,24.9
2018-08-10T08:02:12.738Z,24.9
2018-08-10T08:03:03.144Z,24.9
2018-08-10T08:03:53.750Z,24.9
2018-08-10T08:04:43.221Z,24.9
2018-08-10T08:05:33.623Z,24.9
2018-08-10T08:06:23.772Z,24.9
2018-08-10T08:07:18.672Z,24.9
2018-08-10T08:08:04.545Z,24.9
2018-08-10T08:08:53.800Z,24.9
2018-08-10T08:09:44.230Z,24.9
2018-08-10T08:10:34.641Z,24.9
2018-08-10T08:11:24.276Z,24.9
2018-08-10T08:12:14.635Z,24.9
2018-08-10T08:13:04.290Z,24.9
2018-08-10T08:13:55.572Z,24.9
2018-08-10T08:14:43.495Z,24.9
2018-08-10T08:15:33.800Z,24.9
2018-08-10T08:16:24.167Z,24.9
2018-08-10T08:17:14.605Z,24.9
2018-08-10T08:18:04.926Z,24.9
2018-08-10T08:18:54.363Z,24.9
2018-08-10T08:19:45.802Z,24.9
2018-08-10T08:20:34.787Z,24.9
2018-08-10T08:21:24.570Z,24.9
2018-08-10T08:22:15.249Z,24.9
2018-08-10T08:23:04.997Z,24.9
2018-08-10T08:23:54.835Z,24.9
2018-08-10T08:24:45.064Z,25
2018-08-10T08:25:34.401Z,25
2018-08-10T08:26:25.842Z,25
2018-08-10T08:27:16.958Z,25
2018-08-10T08:28:05.400Z,25
2018-08-10T08:28:55.417Z,25
2018-08-10T08:29:45.502Z,25.1
2018-08-10T08:30:35.851Z,25.1
2018-08-10T08:31:25.378Z,25.1
2018-08-10T08:32:15.191Z,25.1
2018-08-10T08:33:05.991Z,25.1
2018-08-10T08:33:56.111Z,25.1
2018-08-10T08:34:47.367Z,25.1
2018-08-10T08:35:34.459Z,25.1
2018-08-10T08:36:26.299Z,25.1
2018-08-10T08:37:16.155Z,25.1
2018-08-10T08:38:06.453Z,25.1
2018-08-10T08:38:56.165Z,25.1
2018-08-10T08:39:46.582Z,25.1
2018-08-10T08:40:36.344Z,25.2
2018-08-10T08:41:25.524Z,25.2
2018-08-10T08:42:16.429Z,25.2
2018-08-10T08:43:06.859Z,25.2
2018-08-10T08:43:56.566Z,25.2
2018-08-10T08:44:45.905Z,25.1
2018-08-10T08:45:38.099Z,25.2
2018-08-10T08:46:30.765Z,25.1
2018-08-10T08:47:17.096Z,25.1
2018-08-10T08:48:07.181Z,25.1
2018-08-10T08:48:56.703Z,25.1
2018-08-10T08:49:46.261Z,25.1
2018-08-10T08:50:36.240Z,25.1
2018-08-10T08:51:27.758Z,25.1
2018-08-10T08:52:17.835Z,25.1
2018-08-10T08:53:07.020Z,25.1
2018-08-10T08:53:58.323Z,25.1
2018-08-10T08:54:48.112Z,25.1
2018-08-10T08:55:38.089Z,25
2018-08-10T08:56:27.280Z,25
2018-08-10T08:57:18.890Z,25
2018-08-10T08:58:07.985Z,25
2018-08-10T08:58:58.026Z,25
2018-08-10T08:59:48.094Z,25
2018-08-10T09:00:38.173Z,24.9
2018-08-10T09:01:27.983Z,24.9
2018-08-10T09:02:17.982Z,24.9
2018-08-10T09:03:07.510Z,24.9
2018-08-10T09:03:57.841Z,24.9
2018-08-10T09:21:14.993Z,24.9
2018-08-10T09:22:05.549Z,24.9
2018-08-10T09:22:55.113Z,24.9
2018-08-10T09:23:45.405Z,25
2018-08-10T09:24:35.451Z,25
2018-08-10T09:25:25.291Z,24.9
2018-08-10T09:26:15.357Z,25
2018-08-10T09:27:06.998Z,25
2018-08-10T09:27:56.047Z,25
2018-08-10T09:28:46.026Z,25
2018-08-10T09:29:36.375Z,25
2018-08-10T09:30:25.907Z,25
2018-08-10T09:31:15.510Z,24.9
2018-08-10T09:32:06.331Z,24.9
2018-08-10T09:32:55.986Z,24.9
2018-08-10T09:33:46.267Z,24.9
2018-08-10T09:34:36.846Z,24.9
2018-08-10T09:35:26.275Z,24.9
2018-08-10T09:36:16.374Z,24.9
2018-08-10T09:37:06.973Z,24.9
2018-08-10T09:37:56.790Z,24.9
2018-08-10T09:38:46.971Z,24.9
2018-08-10T09:39:36.022Z,24.9
2018-08-10T09:40:26.685Z,24.9
2018-08-10T09:41:16.733Z,24.9
2018-08-10T09:42:07.625Z,24.9
2018-08-10T09:42:57.003Z,24.9
2018-08-10T09:43:52.765Z,24.9
2018-08-10T09:44:35.608Z,24.9
2018-08-10T09:45:27.108Z,24.9
2018-08-10T09:46:17.423Z,24.9
2018-08-10T09:47:06.942Z,24.9
2018-08-10T09:47:57.346Z,25
2018-08-10T09:48:47.329Z,25
2018-08-10T09:49:37.747Z,25
2018-08-10T09:50:27.591Z,25.1
2018-08-10T09:51:17.782Z,25.1
2018-08-10T09:52:06.872Z,25.1
2018-08-10T09:52:58.212Z,25.1
2018-08-10T09:53:47.985Z,25.1
2018-08-10T09:54:37.544Z,25.1
2018-08-10T09:55:27.851Z,25.1
2018-08-10T09:56:17.607Z,25.1
2018-08-10T09:57:07.973Z,25.1
2018-08-10T09:57:58.615Z,25.1
2018-08-10T09:58:47.615Z,25.1
2018-08-10T09:59:38.135Z,25.1
2018-08-10T10:00:28.555Z,25.2
2018-08-10T10:01:18.340Z,25.1
2018-08-10T10:02:08.426Z,25.1
2018-08-10T10:02:58.721Z,25.1
2018-08-10T10:03:49.092Z,25.2
2018-08-10T10:04:38.032Z,25.1
2018-08-10T10:05:29.262Z,25.1
2018-08-10T10:06:18.217Z,25.2
2018-08-10T10:07:09.347Z,25.1
2018-08-10T10:07:58.818Z,25.1
2018-08-10T10:08:49.204Z,25.1
2018-08-10T10:09:39.409Z,25.1
2018-08-10T10:10:29.052Z,25.1
2018-08-10T10:11:19.617Z,25.1
2018-08-10T10:12:09.475Z,25
2018-08-10T10:12:59.501Z,25
2018-08-10T10:13:49.841Z,25
2018-08-10T10:14:39.467Z,25
2018-08-10T10:15:29.259Z,24.9
2018-08-10T10:16:20.189Z,24.9
2018-08-10T10:17:09.690Z,24.9
2018-08-10T10:18:00.016Z,24.9
2018-08-10T10:18:49.828Z,24.9
2018-08-10T10:19:38.984Z,24.9
2018-08-10T10:20:29.510Z,24.9
2018-08-10T10:21:20.633Z,24.9
2018-08-10T10:22:10.362Z,24.9
2018-08-10T10:23:00.813Z,24.9
2018-08-10T10:23:49.889Z,24.9
2018-08-10T10:24:40.225Z,24.8
2018-08-10T10:25:30.323Z,24.9
2018-08-10T10:26:20.397Z,24.8
2018-08-10T10:27:10.692Z,24.9
2018-08-10T10:28:00.091Z,24.8
2018-08-10T10:28:50.284Z,24.8
2018-08-10T10:29:40.648Z,24.8
2018-08-10T10:30:31.024Z,24.8
2018-08-10T10:31:21.088Z,24.8
2018-08-10T10:32:10.548Z,24.8
2018-08-10T10:33:00.991Z,24.8
2018-08-10T10:33:50.977Z,24.8
2018-08-10T10:34:41.659Z,24.8
2018-08-10T10:35:31.577Z,24.8
2018-08-10T10:36:21.627Z,24.8
2018-08-10T10:37:11.127Z,24.8
2018-08-10T10:38:01.222Z,24.8
2018-08-10T10:38:50.185Z,24.8
2018-08-10T10:39:41.902Z,24.8
2018-08-10T10:40:31.384Z,24.8
2018-08-10T10:41:22.090Z,24.8
2018-08-10T10:42:11.580Z,24.8
2018-08-10T10:43:01.894Z,24.8
2018-08-10T10:43:51.432Z,24.8
2018-08-10T10:44:41.168Z,24.8
2018-08-10T10:45:32.079Z,24.8
2018-08-10T10:46:22.419Z,24.8
2018-08-10T10:47:12.573Z,24.8
2018-08-10T10:48:01.704Z,24.8
2018-08-10T10:48:53.967Z,24.8
2018-08-10T10:49:41.344Z,24.8
2018-08-10T10:50:32.464Z,24.8
2018-08-10T10:51:22.239Z,24.8
2018-08-10T10:52:12.601Z,24.8
2018-08-10T10:53:02.403Z,24.8
2018-08-10T10:53:52.658Z,24.8
2018-08-10T10:54:41.969Z,24.8
2018-08-10T10:55:33.388Z,24.8
2018-08-10T10:56:22.818Z,24.8
2018-08-10T10:57:12.686Z,24.8
2018-08-10T10:58:03.031Z,24.8
2018-08-10T10:58:52.582Z,24.8
2018-08-10T10:59:42.876Z,24.8
2018-08-10T11:00:32.663Z,24.8
2018-08-10T11:01:23.561Z,24.8
2018-08-10T11:02:13.321Z,24.8
2018-08-10T11:03:03.684Z,24.8
2018-08-10T11:03:53.174Z,24.8
2018-08-10T11:04:43.487Z,24.8
2018-08-10T11:05:33.117Z,24.8
2018-08-10T11:06:25.016Z,24.8
2018-08-10T11:07:13.742Z,24.8
2018-08-10T11:08:03.805Z,24.8
2018-08-10T11:08:53.811Z,24.8
2018-08-10T11:09:43.888Z,24.8
2018-08-10T11:10:33.971Z,24.8
2018-08-10T11:11:24.016Z,24.8
2018-08-10T11:12:14.086Z,24.8
2018-08-10T11:13:03.953Z,24.8
2018-08-10T11:13:53.953Z,24.8
2018-08-10T11:14:43.757Z,24.8
2018-08-10T11:15:34.398Z,24.8
2018-08-10T11:16:24.125Z,24.8
2018-08-10T11:17:14.501Z,24.8
2018-08-10T11:18:05.823Z,24.8
2018-08-10T11:18:54.691Z,24.8
2018-08-10T11:19:44.188Z,24.8
2018-08-10T11:20:34.848Z,24.8
2018-08-10T11:21:24.330Z,24.8
2018-08-10T11:22:14.693Z,24.8
2018-08-10T11:23:04.475Z,24.8
2018-08-10T11:23:55.291Z,24.8
2018-08-10T11:24:45.167Z,24.8
2018-08-10T11:25:35.641Z,24.8
2018-08-10T11:26:25.321Z,24.8
2018-08-10T11:27:14.523Z,24.8
2018-08-10T11:28:05.700Z,24.8
2018-08-10T11:28:55.195Z,24.8
2018-08-10T11:29:45.264Z,24.8
2018-08-10T11:30:35.933Z,24.8
2018-08-10T11:31:25.141Z,24.8
2018-08-10T11:32:15.288Z,24.8
2018-08-10T11:33:06.135Z,24.8
2018-08-10T11:33:55.593Z,24.8
2018-08-10T11:34:45.929Z,24.8
2018-08-10T11:35:35.439Z,24.8
2018-08-10T11:36:25.843Z,24.8
2018-08-10T11:37:16.116Z,24.8
2018-08-10T11:38:05.634Z,24.8
2018-08-10T11:38:56.272Z,24.8
2018-08-10T11:39:45.820Z,24.8
2018-08-10T11:40:35.965Z,24.8
2018-08-10T11:41:26.441Z,24.8
2018-08-10T11:42:16.602Z,24.8
2018-08-10T11:43:06.585Z,24.8
2018-08-10T11:43:56.359Z,24.8
2018-08-10T11:44:46.725Z,24.8
2018-08-10T11:45:36.232Z,24.8
2018-08-10T11:46:27.065Z,24.8
2018-08-10T11:47:16.609Z,24.8
2018-08-10T11:48:06.945Z,24.8
2018-08-10T11:48:57.076Z,24.8
2018-08-10T11:49:46.549Z,24.8
2018-08-10T11:50:36.321Z,24.8
2018-08-10T11:51:27.205Z,24.8
2018-08-10T11:52:17.260Z,24.8
2018-08-10T11:53:07.056Z,24.8
2018-08-10T11:53:57.421Z,24.8
2018-08-10T11:54:47.193Z,24.8
2018-08-10T11:55:37.339Z,24.8
2018-08-10T11:56:27.450Z,24.8
2018-08-10T11:57:17.355Z,24.8
2018-08-10T11:58:07.258Z,24.8
2018-08-10T11:58:58.102Z,24.8
2018-08-10T11:59:47.331Z,24.8
2018-08-10T12:00:37.435Z,24.8
2018-08-10T12:01:27.726Z,24.8
2018-08-10T12:02:17.517Z,24.8
2018-08-10T12:03:08.549Z,24.8
2018-08-10T12:03:57.669Z,24.8
2018-08-10T12:04:47.983Z,24.8
2018-08-10T12:05:38.072Z,24.8
2018-08-10T12:06:28.129Z,24.8
2018-08-10T12:07:18.501Z,24.8
2018-08-10T12:08:08.552Z,24.8
2018-08-10T12:08:58.878Z,24.8
2018-08-10T12:09:48.627Z,24.8
2018-08-10T12:10:39.022Z,24.8
2018-08-10T12:11:27.945Z,24.8
2018-08-10T12:12:18.517Z,24.8
2018-08-10T12:13:08.913Z,24.8
2018-08-10T12:13:58.943Z,24.8
2018-08-10T12:14:48.758Z,24.8
2018-08-10T12:15:39.350Z,24.8
2018-08-10T12:16:29.166Z,24.8
2018-08-10T12:17:18.670Z,24.8
2018-08-10T12:18:08.751Z,24.7
2018-08-10T12:18:59.705Z,24.8
2018-08-10T12:19:49.195Z,24.8